메인 페이지
METAR-TAF:

METAR-TAF

공항 :

빈 국제공항

빈, 오스트리아

위도: 48-07N, 경도: 016-34E, 고도: 183m

현재 날씨관측

예보는 21분 전, 15:50시(UTC)에 발표되었습니다.
동남동5kt
온도 2°C
습도 87%
기압 1027 hPa
시정 10km 이상
1500m 미만 상공 구름 및 적란운 없음

METAR: LOWW 181550Z 11005KT CAVOK 02/M00 Q1027 NOSIG

시각: 17:11 (16:11 UTC)

예보

예보는 1 시간 56분 전, 14:15시(UTC)에 발표되었습니다.
예보 대상 시간: 18일 15시부터 19일 21시까지 (UTC)
3kt
시정 10km 이상
고도 5000ft 상공 구름 조금
고도 10000ft 상공 구름 보통
전환 중
18일 16시부터 18일 18시까지 (UTC)
시정: 3000m
고도 300ft 상공 구름 조금
박무
전환 중
18일 18시부터 18일 21시까지 (UTC)
남남동8kt
시정: 1200m
고도 400ft 상공 구름 많음
일시적
18일 21시부터 19일 05시까지 (UTC)
시정: 0500m
고도 100ft 상공
어는 안개
전환 중
19일 05시부터 19일 07시까지 (UTC)
남동15kt, 순간 최대 풍속 25kt
고도 700ft 상공 구름 많음
전환 중
19일 08시부터 19일 11시까지 (UTC)
남남동20kt, 순간 최대 풍속 30kt
고도 1000ft 상공 구름 조금
고도 2500ft 상공 구름 보통

TAF: LOWW 181415Z 1815/1921 10003KT 9999 FEW050 SCT100 TX02/1911Z TNM02/1905Z BECMG 1816/1818 3000 BR FEW003 BECMG 1818/1821 15008KT 1200 FZBCFG BKN004 TEMPO 1821/1905 0500 FZFG VV001 BECMG 1905/1907 13015G25KT BKN007 BECMG 1908/1911 15020G30KT FEW010 SCT025

4,000개 이상의 공항 관측 자료 및 예보 (METAR 및 TAF 보고).

지도상에서 검색 가능한 기상관측소가 노란 점과 빨간 점으로 표시되어 있습니다.

기상관측소 명을 보려면 표시 위로 마우스를 이동하세요.

날씨 관측과 예보를 보려면 클릭하세요.

지도 변경 : 확대하려면 엑스 표시가 있는 녹색 버튼, 축소하려면 빼기 표시가 있는 녹색 버튼, 다음 페이지의 지도를 보려면 녹색 화살표를 클릭하세요.


METAR-TAF: